createdAt,value
2018-05-11T00:02:40.226Z,99.90
2018-05-11T00:07:14.197Z,99.90
2018-05-11T00:11:47.394Z,99.90
2018-05-11T00:16:20.582Z,99.90
2018-05-11T00:20:53.759Z,99.90
2018-05-11T00:25:26.957Z,99.90
2018-05-11T00:30:00.227Z,99.90
2018-05-11T00:34:33.392Z,99.90
2018-05-11T00:39:07.430Z,99.90
2018-05-11T00:43:40.578Z,99.90
2018-05-11T00:48:13.759Z,99.90
2018-05-11T00:52:46.963Z,99.90
2018-05-11T00:57:20.146Z,99.90
2018-05-11T01:01:54.110Z,99.90
2018-05-11T01:06:27.270Z,99.90
2018-05-11T01:11:01.247Z,99.90
2018-05-11T01:15:34.419Z,99.90
2018-05-11T01:20:07.663Z,99.90
2018-05-11T01:24:40.853Z,99.90
2018-05-11T01:29:14.050Z,99.90
2018-05-11T01:33:47.268Z,99.90
2018-05-11T01:38:20.447Z,99.90
2018-05-11T01:42:54.414Z,99.90
2018-05-11T01:47:27.615Z,99.90
2018-05-11T01:52:00.812Z,99.90
2018-05-11T01:56:33.987Z,99.90
2018-05-11T02:01:07.944Z,99.90
2018-05-11T02:05:41.138Z,99.90
2018-05-11T02:10:14.416Z,99.90
2018-05-11T02:14:47.586Z,99.90
2018-05-11T02:19:20.794Z,99.90
2018-05-11T02:23:54.026Z,99.90
2018-05-11T02:28:27.198Z,99.90
2018-05-11T02:33:00.403Z,99.90
2018-05-11T02:37:33.602Z,99.90
2018-05-11T02:42:06.794Z,99.90
2018-05-11T02:46:40.016Z,99.90
2018-05-11T02:51:13.672Z,99.90
2018-05-11T02:55:47.003Z,99.90
2018-05-11T03:00:20.269Z,99.90
2018-05-11T03:04:53.450Z,99.90
2018-05-11T03:09:26.748Z,99.90
2018-05-11T03:13:59.858Z,99.90
2018-05-11T03:18:33.076Z,99.90
2018-05-11T03:23:06.254Z,99.90
2018-05-11T03:27:40.186Z,99.90
2018-05-11T03:32:13.386Z,99.90
2018-05-11T03:36:46.587Z,99.90
2018-05-11T03:41:27.048Z,99.90
2018-05-11T03:46:00.241Z,99.90
2018-05-11T03:50:34.215Z,99.90
2018-05-11T03:55:07.422Z,99.90
2018-05-11T03:59:40.623Z,99.90
2018-05-11T04:04:25.652Z,99.90
2018-05-11T04:08:58.856Z,99.90
2018-05-11T04:13:33.219Z,99.90
2018-05-11T04:18:07.183Z,99.90
2018-05-11T04:22:40.388Z,99.90
2018-05-11T04:27:13.658Z,99.90
2018-05-11T04:31:47.695Z,99.90
2018-05-11T04:36:21.644Z,99.90
2018-05-11T04:40:54.834Z,99.90
2018-05-11T04:45:28.020Z,99.90
2018-05-11T04:50:01.966Z,99.90
2018-05-11T04:54:35.153Z,99.90
2018-05-11T04:59:09.111Z,99.90
2018-05-11T05:03:42.283Z,99.90
2018-05-11T05:08:15.481Z,99.90
2018-05-11T05:12:49.457Z,99.90
2018-05-11T05:17:22.657Z,99.90
2018-05-11T05:21:55.868Z,99.90
2018-05-11T05:26:29.063Z,99.90
2018-05-11T05:31:02.283Z,99.90
2018-05-11T05:35:35.451Z,99.90
2018-05-11T05:40:09.426Z,99.90
2018-05-11T05:44:42.677Z,99.90
2018-05-11T05:49:16.602Z,99.90
2018-05-11T05:53:50.582Z,99.90
2018-05-11T05:58:23.788Z,99.90
2018-05-11T06:02:56.986Z,99.90
2018-05-11T06:07:30.199Z,99.90
2018-05-11T06:12:03.383Z,99.90
2018-05-11T06:16:36.626Z,99.90
2018-05-11T06:21:09.867Z,99.90
2018-05-11T06:25:43.847Z,99.90
2018-05-11T06:30:17.023Z,99.90
2018-05-11T06:34:50.238Z,99.90
2018-05-11T06:39:23.415Z,99.90
2018-05-11T06:43:56.646Z,99.90
2018-05-11T06:48:29.846Z,99.90
2018-05-11T06:53:03.015Z,99.30
2018-05-11T06:57:36.229Z,99.30
2018-05-11T07:02:09.399Z,98.70
2018-05-11T07:06:42.603Z,98.10
2018-05-11T07:11:15.809Z,98.00
2018-05-11T07:15:49.021Z,97.40
2018-05-11T07:20:22.192Z,96.90
2018-05-11T07:24:55.394Z,96.20
2018-05-11T07:29:28.566Z,95.90
2018-05-11T07:34:01.775Z,94.90
2018-05-11T07:38:35.750Z,94.80
2018-05-11T07:43:08.951Z,94.80
2018-05-11T07:47:42.165Z,94.50
2018-05-11T07:52:15.371Z,94.10
2018-05-11T07:56:48.574Z,92.70
2018-05-11T08:01:21.783Z,91.70
2018-05-11T08:05:54.980Z,90.20
2018-05-11T08:10:28.210Z,89.40
2018-05-11T08:15:01.418Z,88.60
2018-05-11T08:19:34.620Z,84.10
2018-05-11T08:24:07.829Z,79.90
2018-05-11T08:28:41.011Z,76.30
2018-05-11T08:33:14.247Z,64.50
2018-05-11T08:37:47.451Z,60.80
2018-05-11T08:42:20.642Z,59.80
2018-05-11T08:46:53.839Z,56.40
2018-05-11T08:51:27.047Z,54.50
2018-05-11T08:56:00.246Z,54.40
2018-05-11T09:00:33.447Z,49.70
2018-05-11T09:05:07.302Z,48.50
2018-05-11T09:09:40.516Z,48.10
2018-05-11T09:14:13.707Z,47.70
2018-05-11T09:18:46.917Z,49.80
2018-05-11T09:23:20.114Z,52.80
2018-05-11T09:27:53.312Z,56.50
2018-05-11T09:32:26.516Z,62.80
2018-05-11T09:36:59.743Z,59.70
2018-05-11T09:41:32.924Z,64.20
2018-05-11T09:46:06.898Z,60.70
2018-05-11T09:50:40.089Z,60.50
2018-05-11T09:55:13.287Z,52.50
2018-05-11T09:59:46.484Z,51.20
2018-05-11T10:04:19.675Z,50.70
2018-05-11T10:08:53.625Z,53.80
2018-05-11T10:13:26.836Z,53.80
2018-05-11T10:18:00.092Z,57.00
2018-05-11T10:22:33.305Z,51.30
2018-05-11T10:27:07.267Z,42.10
2018-05-11T10:31:40.494Z,42.00
2018-05-11T10:36:13.688Z,42.80
2018-05-11T10:40:46.897Z,43.50
2018-05-11T10:45:20.098Z,44.40
2018-05-11T10:49:53.288Z,41.50
2018-05-11T10:54:26.446Z,42.90
2018-05-11T10:59:00.464Z,39.30
2018-05-11T11:03:33.667Z,39.30
2018-05-11T11:08:06.911Z,39.30
2018-05-11T11:12:40.866Z,43.30
2018-05-11T11:17:14.046Z,43.20
2018-05-11T11:21:47.999Z,52.90
2018-05-11T11:26:21.171Z,52.90
2018-05-11T11:30:55.136Z,48.80
2018-05-11T11:35:28.324Z,48.70
2018-05-11T11:40:01.549Z,48.40
2018-05-11T11:44:34.748Z,49.30
2018-05-11T11:49:07.943Z,49.90
2018-05-11T11:53:41.175Z,47.10
2018-05-11T11:58:14.350Z,40.90
2018-05-11T12:02:47.599Z,38.10
2018-05-11T12:07:20.786Z,36.10
2018-05-11T12:11:53.986Z,37.90
2018-05-11T12:16:27.202Z,41.00
2018-05-11T12:21:00.394Z,41.60
2018-05-11T12:25:33.588Z,44.70
2018-05-11T12:30:07.019Z,47.30
2018-05-11T12:34:40.219Z,48.50
2018-05-11T12:39:13.407Z,50.50
2018-05-11T12:43:47.365Z,49.90
2018-05-11T12:48:20.580Z,49.80
2018-05-11T12:52:53.812Z,45.60
2018-05-11T12:57:27.014Z,46.50
2018-05-11T13:02:00.206Z,49.20
2018-05-11T13:06:33.403Z,51.00
2018-05-11T13:11:06.607Z,53.20
2018-05-11T13:15:39.929Z,51.00
2018-05-11T13:20:13.131Z,51.40
2018-05-11T13:24:46.519Z,49.30
2018-05-11T13:29:19.711Z,49.10
2018-05-11T13:33:52.890Z,47.60
2018-05-11T13:38:26.112Z,47.80
2018-05-11T13:43:00.098Z,47.70
2018-05-11T13:47:33.271Z,47.60
2018-05-11T13:52:06.478Z,47.20
2018-05-11T13:56:39.668Z,46.00
2018-05-11T14:01:12.875Z,47.50
2018-05-11T14:05:46.061Z,46.70
2018-05-11T14:10:20.035Z,45.70
2018-05-11T14:14:53.342Z,45.20
2018-05-11T14:19:27.024Z,45.70
2018-05-11T14:24:01.004Z,48.20
2018-05-11T14:28:34.575Z,48.10
2018-05-11T14:33:08.229Z,48.50
2018-05-11T14:37:41.451Z,48.00
2018-05-11T14:42:14.661Z,48.40
2018-05-11T14:46:47.838Z,49.10
2018-05-11T14:51:21.023Z,50.70
2018-05-11T14:55:54.211Z,51.90
2018-05-11T15:00:28.190Z,53.80
2018-05-11T15:05:01.445Z,53.70
2018-05-11T15:09:35.382Z,54.10
2018-05-11T15:14:08.611Z,54.00
2018-05-11T15:18:41.792Z,54.60
2018-05-11T15:23:14.984Z,52.40
2018-05-11T15:27:48.946Z,53.40
2018-05-11T15:32:22.143Z,52.80
2018-05-11T15:36:55.355Z,53.90
2018-05-11T15:41:28.571Z,53.70
2018-05-11T15:46:01.759Z,52.10
2018-05-11T15:50:34.975Z,52.50
2018-05-11T15:55:08.190Z,52.70
2018-05-11T15:59:41.378Z,52.40
2018-05-11T16:04:14.562Z,53.60
2018-05-11T16:08:48.516Z,54.00
2018-05-11T16:13:21.718Z,53.90
2018-05-11T16:17:54.932Z,53.50
2018-05-11T16:22:28.104Z,53.50
2018-05-11T16:27:02.084Z,55.60
2018-05-11T16:31:35.238Z,55.50
2018-05-11T16:36:09.919Z,58.50
2018-05-11T16:40:43.130Z,58.40
2018-05-11T16:45:16.331Z,59.00
2018-05-11T16:49:55.962Z,60.00
2018-05-11T16:54:29.158Z,59.90
2018-05-11T16:59:03.127Z,58.00
2018-05-11T17:03:36.321Z,57.90
2018-05-11T17:08:09.555Z,58.30
2018-05-11T17:12:42.900Z,58.30
2018-05-11T17:17:17.073Z,57.70
2018-05-11T17:21:50.350Z,58.40
2018-05-11T17:26:24.403Z,60.60
2018-05-11T17:30:57.594Z,60.60
2018-05-11T17:35:30.790Z,61.00
2018-05-11T17:40:04.741Z,66.00
2018-05-11T17:44:37.913Z,66.00
2018-05-11T17:49:11.883Z,68.00
2018-05-11T17:53:45.088Z,67.90
2018-05-11T17:58:18.283Z,70.80
2018-05-11T18:02:51.451Z,72.60
2018-05-11T18:07:25.408Z,75.60
2018-05-11T18:11:58.633Z,76.30
2018-05-11T18:16:31.807Z,78.10
2018-05-11T18:21:05.009Z,80.10
2018-05-11T18:25:38.242Z,84.90
2018-05-11T18:30:11.438Z,88.40
2018-05-11T18:34:44.630Z,90.10
2018-05-11T18:39:17.844Z,90.90
2018-05-11T18:43:51.019Z,91.60
2018-05-11T18:48:24.992Z,93.10
2018-05-11T18:52:58.333Z,93.10
2018-05-11T18:57:31.443Z,93.90
2018-05-11T19:02:04.642Z,94.40
2018-05-11T19:06:37.867Z,94.70
2018-05-11T19:11:13.155Z,95.60
2018-05-11T19:15:46.346Z,95.60
2018-05-11T19:20:20.348Z,96.30
2018-05-11T19:24:53.571Z,96.20
2018-05-11T19:29:27.529Z,96.80
2018-05-11T19:34:00.726Z,96.70
2018-05-11T19:38:33.929Z,97.30
2018-05-11T19:43:07.104Z,97.90
2018-05-11T19:47:41.071Z,98.30
2018-05-11T19:52:14.270Z,98.20
2018-05-11T19:56:47.458Z,98.40
2018-05-11T20:01:21.424Z,98.80
2018-05-11T20:05:54.686Z,98.80
2018-05-11T20:10:28.679Z,99.20
2018-05-11T20:15:01.864Z,99.20
2018-05-11T20:19:35.065Z,99.40
2018-05-11T20:24:08.267Z,99.70
2018-05-11T20:28:41.479Z,99.90
2018-05-11T20:33:14.774Z,99.90
2018-05-11T20:37:47.995Z,99.90
2018-05-11T20:42:21.163Z,99.90
2018-05-11T20:46:55.286Z,99.90
2018-05-11T20:51:29.694Z,99.90
2018-05-11T20:56:02.898Z,99.90
2018-05-11T21:00:36.099Z,99.90
2018-05-11T21:05:09.276Z,99.90
2018-05-11T21:09:42.486Z,99.90
2018-05-11T21:14:15.684Z,99.90
2018-05-11T21:18:48.897Z,99.90
2018-05-11T21:23:22.074Z,99.90
2018-05-11T21:27:56.030Z,99.90
2018-05-11T21:32:29.229Z,99.90
2018-05-11T21:37:02.431Z,99.90
2018-05-11T21:41:35.594Z,99.90
2018-05-11T21:46:08.782Z,99.90
2018-05-11T21:50:42.087Z,99.90
2018-05-11T21:55:15.967Z,99.90
2018-05-11T21:59:49.170Z,99.90
2018-05-11T22:04:23.161Z,99.90
2018-05-11T22:08:56.380Z,99.90
2018-05-11T22:13:29.727Z,99.90
2018-05-11T22:18:03.554Z,99.90
2018-05-11T22:22:36.730Z,99.90
2018-05-11T22:27:10.025Z,99.90
2018-05-11T22:31:43.245Z,99.90
2018-05-11T22:36:17.213Z,99.90
2018-05-11T22:40:50.385Z,99.90
2018-05-11T22:45:24.363Z,99.90
2018-05-11T22:49:57.585Z,99.90
2018-05-11T22:54:30.771Z,99.90
2018-05-11T22:59:03.958Z,99.90
2018-05-11T23:03:37.200Z,99.90
2018-05-11T23:08:10.343Z,99.90
2018-05-11T23:12:43.551Z,99.90
2018-05-11T23:17:16.720Z,99.90
2018-05-11T23:21:51.413Z,99.90
2018-05-11T23:26:24.630Z,99.90
2018-05-11T23:30:57.895Z,99.90
2018-05-11T23:35:31.859Z,99.90
2018-05-11T23:40:05.062Z,99.90
2018-05-11T23:44:38.333Z,99.90
2018-05-11T23:49:12.295Z,99.90
2018-05-11T23:53:45.515Z,99.90
2018-05-11T23:58:18.694Z,99.90
